Time;durP1;ratioP1;P1;durP2;ratioP2;P2;SDS_P1;SDS_P2;PMS_P1;PMS_P2;Temp;Humidity;BMP_temperature;BMP_pressure;BME280_temperature;BME280_humidity;BME280_pressure;Samples;Min_cycle;Max_cycle;Signal;HPM_P1;HPM_P2
2022/01/01 00:01:52;;;;;;;170.85;109.10;;;;;;;;;;5009859;28;20322;-67
2022/01/01 00:04:18;;;;;;;184.15;111.05;;;;;;;;;;5023597;28;20624;-67
2022/01/01 00:06:43;;;;;;;166.10;104.45;;;;;;;;;;5026482;28;20190;-67
2022/01/01 00:09:09;;;;;;;223.90;119.55;;;;;;;;;;5010284;28;20186;-67
2022/01/01 00:11:34;;;;;;;151.77;82.53;;;;;;;;;;5025101;28;20339;-67
2022/01/01 00:13:59;;;;;;;111.82;66.82;;;;;;;;;;5014851;28;20264;-67
2022/01/01 00:16:25;;;;;;;109.32;62.13;;;;;;;;;;5015177;28;20194;-67
2022/01/01 00:18:50;;;;;;;96.85;52.10;;;;;;;;;;5015549;28;20566;-68
2022/01/01 00:21:16;;;;;;;84.78;42.95;;;;;;;;;;5020325;28;20645;-68
2022/01/01 00:23:41;;;;;;;86.30;41.20;;;;;;;;;;5010656;28;20190;-68
2022/01/01 00:26:07;;;;;;;74.90;42.40;;;;;;;;;;5016850;28;20277;-67
2022/01/01 00:28:32;;;;;;;72.90;40.20;;;;;;;;;;5017564;28;20207;-67
2022/01/01 00:30:57;;;;;;;79.07;34.90;;;;;;;;;;5019359;28;20823;-67
2022/01/01 00:33:23;;;;;;;68.20;36.70;;;;;;;;;;5013023;28;20310;-68
2022/01/01 00:35:48;;;;;;;60.95;31.17;;;;;;;;;;5027109;28;20265;-67
2022/01/01 00:38:13;;;;;;;63.20;34.25;;;;;;;;;;5019148;28;20225;-66
2022/01/01 00:40:39;;;;;;;61.55;30.40;;;;;;;;;;5011621;28;20251;-67
2022/01/01 00:43:04;;;;;;;57.15;27.85;;;;;;;;;;5027476;28;20247;-68
2022/01/01 00:45:29;;;;;;;67.03;33.50;;;;;;;;;;5015662;28;20193;-67
2022/01/01 00:47:55;;;;;;;56.80;30.83;;;;;;;;;;5027731;28;20231;-68
2022/01/01 00:50:21;;;;;;;59.08;29.40;;;;;;;;;;5016751;28;20182;-68
2022/01/01 00:52:47;;;;;;;86.50;43.88;;;;;;;;;;5020736;28;20178;-69
2022/01/01 00:55:13;;;;;;;70.35;40.00;;;;;;;;;;5012911;28;20566;-67
2022/01/01 00:57:38;;;;;;;56.88;30.58;;;;;;;;;;5023077;28;20187;-67
2022/01/01 01:00:05;;;;;;;106.78;65.07;;;;;;;;;;5016417;28;20599;-67
2022/01/01 01:02:31;;;;;;;126.95;76.13;;;;;;;;;;5027441;28;20182;-67
2022/01/01 01:04:57;;;;;;;94.53;51.75;;;;;;;;;;5017705;28;20189;-67
2022/01/01 01:07:22;;;;;;;70.00;34.00;;;;;;;;;;5026444;28;20209;-67
2022/01/01 01:09:47;;;;;;;60.70;32.20;;;;;;;;;;5024025;28;20201;-67
2022/01/01 01:12:13;;;;;;;61.55;30.38;;;;;;;;;;5019048;28;20190;-68
2022/01/01 01:14:42;;;;;;;49.58;27.70;;;;;;;;;;5026285;28;20202;-68
2022/01/01 01:17:10;;;;;;;53.05;26.13;;;;;;;;;;5022709;28;20201;-68
2022/01/01 01:19:35;;;;;;;59.58;28.08;;;;;;;;;;5027779;28;20185;-68
2022/01/01 01:22:00;;;;;;;52.25;26.85;;;;;;;;;;5012966;28;20280;-68
2022/01/01 01:24:26;;;;;;;56.85;25.88;;;;;;;;;;5026252;28;20181;-68
2022/01/01 01:26:53;;;;;;;55.60;24.77;;;;;;;;;;5016904;28;20198;-68
2022/01/01 01:29:19;;;;;;;56.05;24.10;;;;;;;;;;5021779;28;20181;-68
2022/01/01 01:31:46;;;;;;;57.58;24.80;;;;;;;;;;5016700;28;20592;-68
2022/01/01 01:34:11;;;;;;;55.65;24.35;;;;;;;;;;5024943;28;20201;-68
2022/01/01 01:36:38;;;;;;;56.20;24.92;;;;;;;;;;5016284;28;20186;-68
2022/01/01 01:39:04;;;;;;;59.00;26.05;;;;;;;;;;5025088;28;20178;-67
2022/01/01 01:41:31;;;;;;;50.67;27.42;;;;;;;;;;5025943;28;20726;-68
2022/01/01 01:43:58;;;;;;;61.85;25.67;;;;;;;;;;4999708;28;20182;-68
2022/01/01 01:46:25;;;;;;;60.53;27.55;;;;;;;;;;5024091;28;20182;-68
2022/01/01 01:48:50;;;;;;;58.17;27.77;;;;;;;;;;5018464;28;20194;-67
2022/01/01 01:51:16;;;;;;;58.53;27.63;;;;;;;;;;5024971;28;20186;-67
2022/01/01 01:53:41;;;;;;;68.05;30.90;;;;;;;;;;5019012;28;20292;-67
2022/01/01 01:56:07;;;;;;;66.28;31.45;;;;;;;;;;5023919;28;20193;-68
2022/01/01 01:58:33;;;;;;;63.70;30.55;;;;;;;;;;5019264;28;20672;-68
2022/01/01 02:01:20;;;;;;;70.15;29.38;;;;;;;;;;5018665;28;20205;-67
2022/01/01 02:03:47;;;;;;;64.10;28.88;;;;;;;;;;5022517;28;20292;-68
2022/01/01 02:06:14;;;;;;;70.95;29.70;;;;;;;;;;5025499;28;20670;-68
2022/01/01 02:08:40;;;;;;;69.07;30.08;;;;;;;;;;5018430;28;20595;-68
2022/01/01 02:11:05;;;;;;;67.32;33.10;;;;;;;;;;5022618;28;20186;-67
2022/01/01 02:13:36;;;;;;;67.40;29.83;;;;;;;;;;5015319;28;20221;-67
2022/01/01 02:18:47;;;;;;;63.13;29.88;;;;;;;;;;5016753;28;20649;-68
2022/01/01 02:21:14;;;;;;;61.10;27.73;;;;;;;;;;5021934;28;20641;-68
2022/01/01 02:23:44;;;;;;;54.03;28.20;;;;;;;;;;5015723;28;20189;-68
2022/01/01 02:26:15;;;;;;;63.17;28.30;;;;;;;;;;5018666;28;20182;-67
2022/01/01 02:28:46;;;;;;;60.10;28.58;;;;;;;;;;5020188;28;20659;-68
2022/01/01 02:31:12;;;;;;;66.05;29.02;;;;;;;;;;5013516;28;20300;-67
2022/01/01 02:33:39;;;;;;;65.10;31.00;;;;;;;;;;5023718;28;20616;-67
2022/01/01 02:36:05;;;;;;;67.88;32.38;;;;;;;;;;5022583;28;20580;-68
2022/01/01 02:38:35;;;;;;;73.90;33.70;;;;;;;;;;5024855;28;20676;-68
2022/01/01 02:41:00;;;;;;;65.35;33.63;;;;;;;;;;5021448;28;20252;-68
2022/01/01 02:43:26;;;;;;;69.57;34.47;;;;;;;;;;5023119;28;20186;-67
2022/01/01 02:45:52;;;;;;;73.18;36.05;;;;;;;;;;5019189;28;20204;-67
2022/01/01 02:48:17;;;;;;;67.63;36.33;;;;;;;;;;5023619;28;20269;-69
2022/01/01 02:50:42;;;;;;;74.47;37.20;;;;;;;;;;5020207;28;20213;-68
2022/01/01 02:53:12;;;;;;;79.40;37.50;;;;;;;;;;5024833;28;20212;-67
2022/01/01 02:55:37;;;;;;;73.15;37.47;;;;;;;;;;5015500;28;20289;-68
2022/01/01 02:58:04;;;;;;;78.85;40.53;;;;;;;;;;5025606;28;20269;-67
2022/01/01 03:00:29;;;;;;;83.55;41.22;;;;;;;;;;5024331;28;20212;-67
2022/01/01 03:02:55;;;;;;;76.97;38.78;;;;;;;;;;5017427;28;20240;-67
2022/01/01 03:05:20;;;;;;;84.28;40.80;;;;;;;;;;5026223;28;20190;-67
2022/01/01 03:07:45;;;;;;;81.00;41.05;;;;;;;;;;5019536;28;20194;-68
2022/01/01 03:10:11;;;;;;;83.38;41.72;;;;;;;;;;5026008;28;20182;-67
2022/01/01 03:12:36;;;;;;;78.20;42.50;;;;;;;;;;5018161;28;20723;-68
2022/01/01 03:15:02;;;;;;;81.32;43.47;;;;;;;;;;5026890;28;20295;-68
2022/01/01 03:17:27;;;;;;;80.03;42.30;;;;;;;;;;5019318;28;20193;-68
2022/01/01 03:19:52;;;;;;;88.13;42.95;;;;;;;;;;5028350;28;20547;-68
2022/01/01 03:22:18;;;;;;;79.13;40.25;;;;;;;;;;5019811;28;20193;-68
2022/01/01 03:24:43;;;;;;;74.82;39.92;;;;;;;;;;5028715;28;20198;-68
2022/01/01 03:27:08;;;;;;;74.00;37.47;;;;;;;;;;5018299;28;20178;-68
2022/01/01 03:29:34;;;;;;;67.15;35.28;;;;;;;;;;5027431;28;20604;-68
2022/01/01 03:31:59;;;;;;;68.88;36.28;;;;;;;;;;5027413;28;20257;-68
2022/01/01 03:34:25;;;;;;;72.78;36.90;;;;;;;;;;5018706;28;20624;-67
2022/01/01 03:36:50;;;;;;;78.35;36.88;;;;;;;;;;5027921;28;20185;-68
2022/01/01 03:39:16;;;;;;;79.95;38.55;;;;;;;;;;5018263;28;20534;-68
2022/01/01 03:41:41;;;;;;;80.43;40.17;;;;;;;;;;5028447;28;20186;-68
2022/01/01 03:44:06;;;;;;;76.10;39.65;;;;;;;;;;5018543;28;20653;-68
2022/01/01 03:46:32;;;;;;;82.38;39.58;;;;;;;;;;5027949;28;20182;-67
2022/01/01 03:48:57;;;;;;;71.43;38.67;;;;;;;;;;5018369;28;20202;-67
2022/01/01 03:51:22;;;;;;;69.20;37.83;;;;;;;;;;5029105;28;20229;-68
2022/01/01 03:53:48;;;;;;;71.85;35.95;;;;;;;;;;5016602;28;20202;-68
2022/01/01 03:56:14;;;;;;;69.93;34.40;;;;;;;;;;5028277;28;20237;-68
2022/01/01 03:58:40;;;;;;;65.55;32.58;;;;;;;;;;5016946;28;20552;-68
2022/01/01 04:01:06;;;;;;;66.90;33.38;;;;;;;;;;5027964;28;20196;-67
2022/01/01 04:03:31;;;;;;;64.55;33.17;;;;;;;;;;5025625;28;20180;-68
2022/01/01 04:05:56;;;;;;;66.28;31.05;;;;;;;;;;5024737;28;20189;-68
2022/01/01 04:08:22;;;;;;;55.50;28.40;;;;;;;;;;5024890;28;20178;-68
2022/01/01 04:10:47;;;;;;;60.80;28.70;;;;;;;;;;5013446;28;20392;-67
2022/01/01 04:13:12;;;;;;;60.45;30.63;;;;;;;;;;5026373;28;20197;-68
2022/01/01 04:15:41;;;;;;;60.53;28.80;;;;;;;;;;5017771;28;20193;-68
2022/01/01 04:18:12;;;;;;;63.95;28.75;;;;;;;;;;5024628;28;20256;-68
2022/01/01 04:20:38;;;;;;;60.22;28.98;;;;;;;;;;5020148;28;20198;-68
2022/01/01 04:23:08;;;;;;;55.13;27.50;;;;;;;;;;5021017;28;20225;-67
2022/01/01 04:25:34;;;;;;;62.08;27.58;;;;;;;;;;5015959;28;20478;-68
2022/01/01 04:27:59;;;;;;;55.15;27.35;;;;;;;;;;5020492;28;20202;-68
2022/01/01 04:30:28;;;;;;;62.25;27.50;;;;;;;;;;5013631;28;20205;-67
2022/01/01 04:32:54;;;;;;;52.60;26.40;;;;;;;;;;5024906;28;20653;-68
2022/01/01 04:35:19;;;;;;;62.95;26.88;;;;;;;;;;5027235;28;20300;-68
2022/01/01 04:37:44;;;;;;;58.05;25.60;;;;;;;;;;5017360;28;20288;-68
2022/01/01 04:40:10;;;;;;;58.25;24.92;;;;;;;;;;5026096;28;20217;-68
2022/01/01 04:42:35;;;;;;;51.58;24.63;;;;;;;;;;5016389;28;20201;-68
2022/01/01 04:45:01;;;;;;;51.58;23.38;;;;;;;;;;5025007;28;20186;-67
2022/01/01 04:47:27;;;;;;;55.33;23.70;;;;;;;;;;5016033;28;20190;-68
2022/01/01 04:49:53;;;;;;;52.30;21.80;;;;;;;;;;5025314;28;20190;-68
2022/01/01 04:52:18;;;;;;;54.63;22.33;;;;;;;;;;5021946;28;20742;-68
2022/01/01 04:54:44;;;;;;;48.03;19.55;;;;;;;;;;5021961;28;20279;-67
2022/01/01 04:57:11;;;;;;;37.80;17.30;;;;;;;;;;5013891;28;20241;-67
2022/01/01 04:59:37;;;;;;;38.40;17.55;;;;;;;;;;5022996;28;20197;-69
2022/01/01 05:02:03;;;;;;;44.00;18.48;;;;;;;;;;5017782;28;20658;-68
2022/01/01 05:04:28;;;;;;;39.42;16.42;;;;;;;;;;5019901;28;20189;-67
2022/01/01 05:06:55;;;;;;;35.83;17.40;;;;;;;;;;5019888;28;20178;-68
2022/01/01 05:09:20;;;;;;;41.38;16.83;;;;;;;;;;5016165;28;20617;-67
2022/01/01 05:11:47;;;;;;;39.08;16.20;;;;;;;;;;5023726;28;20174;-67
2022/01/01 05:14:13;;;;;;;38.33;16.33;;;;;;;;;;5015230;28;20242;-67
2022/01/01 05:16:39;;;;;;;38.50;15.18;;;;;;;;;;5019856;28;20282;-68
2022/01/01 05:19:05;;;;;;;39.58;16.55;;;;;;;;;;5014237;28;20182;-68
2022/01/01 05:21:33;;;;;;;38.10;15.80;;;;;;;;;;5018897;28;20244;-68
2022/01/01 05:23:59;;;;;;;42.83;17.50;;;;;;;;;;5011472;28;20273;-67
2022/01/01 05:26:25;;;;;;;35.88;15.68;;;;;;;;;;5023022;28;20281;-68
2022/01/01 05:28:50;;;;;;;42.75;15.32;;;;;;;;;;5012164;28;20187;-68
2022/01/01 05:31:17;;;;;;;42.90;17.02;;;;;;;;;;5022022;28;20292;-68
2022/01/01 05:33:42;;;;;;;38.40;16.42;;;;;;;;;;5015427;28;20217;-68
2022/01/01 05:36:07;;;;;;;41.42;15.52;;;;;;;;;;5023318;28;20187;-68
2022/01/01 05:38:33;;;;;;;37.40;16.30;;;;;;;;;;5021698;28;20178;-68
2022/01/01 05:40:58;;;;;;;37.55;15.98;;;;;;;;;;5022698;28;20182;-67
2022/01/01 05:43:23;;;;;;;45.80;18.17;;;;;;;;;;5023217;28;20181;-67
2022/01/01 05:45:49;;;;;;;42.72;17.35;;;;;;;;;;5013461;28;20182;-68
2022/01/01 05:48:15;;;;;;;38.95;16.65;;;;;;;;;;5024042;28;20210;-67
2022/01/01 05:50:40;;;;;;;36.75;16.30;;;;;;;;;;5016618;28;20183;-67
2022/01/01 05:53:05;;;;;;;44.63;17.40;;;;;;;;;;5023819;28;20705;-68
2022/01/01 05:55:31;;;;;;;41.90;18.02;;;;;;;;;;5015865;28;20225;-67
2022/01/01 05:57:56;;;;;;;36.40;17.02;;;;;;;;;;5017941;28;20248;-68
2022/01/01 06:00:21;;;;;;;43.35;18.20;;;;;;;;;;5014185;28;20668;-68
2022/01/01 06:02:47;;;;;;;40.47;17.98;;;;;;;;;;5020596;28;20182;-68
2022/01/01 06:05:12;;;;;;;40.08;18.02;;;;;;;;;;5013305;28;20543;-68
2022/01/01 06:07:38;;;;;;;50.33;18.25;;;;;;;;;;5023648;28;20193;-67
2022/01/01 06:10:04;;;;;;;44.75;17.70;;;;;;;;;;5021647;28;20182;-68
2022/01/01 06:12:30;;;;;;;40.95;18.27;;;;;;;;;;5013654;28;20213;-67
2022/01/01 06:14:55;;;;;;;49.80;20.35;;;;;;;;;;5017974;28;20681;-68
2022/01/01 06:17:20;;;;;;;52.53;19.88;;;;;;;;;;5018625;28;20621;-68
2022/01/01 06:19:46;;;;;;;45.45;19.85;;;;;;;;;;5023199;28;20178;-68
2022/01/01 06:22:11;;;;;;;48.88;20.77;;;;;;;;;;5016155;28;20208;-68
2022/01/01 06:24:36;;;;;;;46.47;19.85;;;;;;;;;;5022280;28;20711;-67
2022/01/01 06:27:02;;;;;;;45.53;19.98;;;;;;;;;;5015505;28;20701;-67
2022/01/01 06:29:27;;;;;;;55.92;22.05;;;;;;;;;;5020962;28;20642;-68
2022/01/01 06:31:53;;;;;;;51.22;21.73;;;;;;;;;;5005073;28;20234;-68
2022/01/01 06:34:18;;;;;;;51.55;22.23;;;;;;;;;;5022608;28;20229;-67
2022/01/01 06:36:44;;;;;;;47.55;23.42;;;;;;;;;;5017336;28;20668;-68
2022/01/01 06:39:09;;;;;;;55.33;25.40;;;;;;;;;;5013985;28;20182;-68
2022/01/01 06:41:34;;;;;;;59.08;26.25;;;;;;;;;;5022283;28;20174;-67
2022/01/01 06:44:00;;;;;;;54.05;25.92;;;;;;;;;;5014138;28;20210;-67
2022/01/01 06:46:25;;;;;;;54.00;25.95;;;;;;;;;;5023224;28;20217;-68
2022/01/01 06:48:50;;;;;;;63.63;27.55;;;;;;;;;;5014754;28;20238;-69
2022/01/01 06:51:16;;;;;;;59.28;26.80;;;;;;;;;;5023456;28;20197;-67
2022/01/01 06:53:41;;;;;;;59.63;26.92;;;;;;;;;;5013011;28;20229;-67
2022/01/01 06:56:07;;;;;;;68.57;29.60;;;;;;;;;;5023753;28;20224;-68
2022/01/01 06:58:34;;;;;;;66.35;28.17;;;;;;;;;;5016166;28;20198;-68
2022/01/01 07:00:59;;;;;;;60.03;28.45;;;;;;;;;;5023019;28;20274;-68
2022/01/01 07:03:24;;;;;;;56.13;26.92;;;;;;;;;;5014380;28;20272;-68
2022/01/01 07:05:50;;;;;;;58.67;27.60;;;;;;;;;;5023621;28;20212;-67
2022/01/01 07:08:16;;;;;;;57.85;28.35;;;;;;;;;;5022769;28;20190;-69
2022/01/01 07:10:44;;;;;;;60.58;28.30;;;;;;;;;;5012947;28;20499;-68
2022/01/01 07:13:18;;;;;;;56.45;26.90;;;;;;;;;;5022322;28;20194;-68
2022/01/01 07:15:44;;;;;;;49.83;26.13;;;;;;;;;;5011096;28;20260;-68
2022/01/01 07:18:09;;;;;;;58.90;27.20;;;;;;;;;;5021320;28;20214;-68
2022/01/01 07:20:34;;;;;;;67.20;26.88;;;;;;;;;;5017686;28;20186;-68
2022/01/01 07:23:00;;;;;;;57.90;26.25;;;;;;;;;;5028143;28;20193;-68
2022/01/01 07:25:25;;;;;;;51.28;24.70;;;;;;;;;;5017570;28;20236;-68
2022/01/01 07:27:51;;;;;;;51.22;24.35;;;;;;;;;;5025158;28;20468;-68
2022/01/01 07:30:16;;;;;;;47.78;23.02;;;;;;;;;;5017290;28;20618;-68
2022/01/01 07:32:44;;;;;;;49.88;22.63;;;;;;;;;;5026409;28;20222;-68
2022/01/01 07:35:11;;;;;;;59.50;23.15;;;;;;;;;;5014620;28;20213;-67
2022/01/01 07:37:37;;;;;;;45.95;23.38;;;;;;;;;;5023463;28;20182;-67
2022/01/01 07:40:08;;;;;;;47.80;23.17;;;;;;;;;;5018019;28;20197;-68
2022/01/01 07:42:33;;;;;;;50.63;22.92;;;;;;;;;;5026600;28;20221;-67
2022/01/01 07:44:59;;;;;;;48.10;23.15;;;;;;;;;;5024911;28;20202;-67
2022/01/01 07:47:25;;;;;;;49.03;22.63;;;;;;;;;;5021766;28;20194;-67
2022/01/01 07:49:50;;;;;;;46.33;21.95;;;;;;;;;;5026347;28;20198;-68
2022/01/01 07:52:16;;;;;;;45.83;21.80;;;;;;;;;;5019334;28;20186;-68
2022/01/01 07:54:41;;;;;;;45.78;21.55;;;;;;;;;;5024861;28;20510;-68
2022/01/01 07:57:07;;;;;;;51.25;22.58;;;;;;;;;;5017530;28;20681;-68
2022/01/01 07:59:32;;;;;;;40.88;20.20;;;;;;;;;;5025957;28;20273;-68
2022/01/01 08:01:57;;;;;;;48.10;19.38;;;;;;;;;;5009994;28;20288;-68
2022/01/01 08:04:22;;;;;;;41.10;19.40;;;;;;;;;;5022495;28;20653;-66
2022/01/01 08:06:48;;;;;;;39.28;19.00;;;;;;;;;;5014739;28;20189;-66
2022/01/01 08:09:14;;;;;;;37.95;19.00;;;;;;;;;;5020271;28;20272;-67
2022/01/01 08:11:40;;;;;;;37.90;17.67;;;;;;;;;;5019831;28;20189;-68
2022/01/01 08:14:05;;;;;;;43.60;16.88;;;;;;;;;;5015505;28;20202;-67
2022/01/01 08:16:31;;;;;;;30.10;15.55;;;;;;;;;;5024924;28;20197;-67
2022/01/01 08:18:56;;;;;;;36.05;16.65;;;;;;;;;;5017323;28;20398;-68
2022/01/01 08:21:21;;;;;;;36.22;15.40;;;;;;;;;;5024377;28;20194;-68
2022/01/01 08:23:47;;;;;;;32.22;15.25;;;;;;;;;;5025097;28;20182;-69
2022/01/01 08:26:12;;;;;;;37.97;15.05;;;;;;;;;;5021815;28;20201;-68
2022/01/01 08:28:37;;;;;;;34.60;14.57;;;;;;;;;;5020407;28;20212;-68
2022/01/01 08:31:04;;;;;;;31.42;14.48;;;;;;;;;;5020004;28;20456;-68
2022/01/01 08:33:29;;;;;;;30.58;13.38;;;;;;;;;;5015668;28;20617;-68
2022/01/01 08:35:55;;;;;;;24.88;12.70;;;;;;;;;;5021303;28;20273;-68
2022/01/01 08:38:20;;;;;;;32.47;13.95;;;;;;;;;;5018268;28;20217;-67
2022/01/01 08:40:45;;;;;;;34.88;13.15;;;;;;;;;;5021839;28;20221;-67
2022/01/01 08:43:11;;;;;;;29.75;12.27;;;;;;;;;;5023140;28;20689;-68
2022/01/01 08:45:37;;;;;;;24.35;11.45;;;;;;;;;;5015851;28;20189;-67
2022/01/01 08:48:04;;;;;;;25.65;11.38;;;;;;;;;;5019544;28;20190;-68
2022/01/01 08:50:29;;;;;;;25.13;10.88;;;;;;;;;;5014396;28;20301;-68
2022/01/01 08:52:55;;;;;;;24.50;10.82;;;;;;;;;;5025680;28;20298;-66
2022/01/01 08:55:20;;;;;;;27.35;10.80;;;;;;;;;;5018170;28;20697;-67
2022/01/01 08:57:46;;;;;;;22.85;9.88;;;;;;;;;;5023372;28;20248;-69
2022/01/01 09:00:12;;;;;;;21.80;10.32;;;;;;;;;;5016564;28;20212;-67
2022/01/01 09:02:37;;;;;;;15.68;9.38;;;;;;;;;;5024254;28;20633;-68
2022/01/01 09:05:04;;;;;;;21.63;9.18;;;;;;;;;;5014736;28;20269;-67
2022/01/01 09:07:29;;;;;;;21.48;9.27;;;;;;;;;;5004623;28;20649;-67
2022/01/01 09:09:59;;;;;;;20.25;8.85;;;;;;;;;;5016869;28;20269;-68
2022/01/01 09:12:25;;;;;;;20.08;8.93;;;;;;;;;;5021558;28;20194;-68
2022/01/01 09:14:51;;;;;;;22.40;8.63;;;;;;;;;;5022862;28;20221;-67
2022/01/01 09:17:16;;;;;;;20.15;7.78;;;;;;;;;;5015769;28;21174;-67
2022/01/01 09:19:42;;;;;;;19.17;7.50;;;;;;;;;;5024961;28;20186;-69
2022/01/01 09:22:07;;;;;;;16.13;7.55;;;;;;;;;;5016152;28;20196;-68
2022/01/01 09:24:33;;;;;;;20.05;8.02;;;;;;;;;;5026079;28;20240;-68
2022/01/01 09:26:59;;;;;;;20.35;7.97;;;;;;;;;;5012822;28;20189;-68
2022/01/01 09:29:24;;;;;;;16.95;7.05;;;;;;;;;;5024161;28;20194;-68
2022/01/01 09:31:49;;;;;;;19.42;6.90;;;;;;;;;;5012138;28;20511;-68
2022/01/01 09:34:15;;;;;;;22.88;7.18;;;;;;;;;;5021542;28;20195;-68
2022/01/01 09:36:40;;;;;;;17.13;7.05;;;;;;;;;;5013520;28;20194;-68
2022/01/01 09:39:06;;;;;;;17.73;6.53;;;;;;;;;;5026480;28;20186;-68
2022/01/01 09:41:32;;;;;;;15.45;6.72;;;;;;;;;;5015953;28;20178;-67
2022/01/01 09:43:58;;;;;;;16.25;6.90;;;;;;;;;;5025435;28;20200;-68
2022/01/01 09:46:26;;;;;;;17.48;7.10;;;;;;;;;;5021445;28;20193;-68
2022/01/01 09:48:52;;;;;;;14.45;6.35;;;;;;;;;;5017741;28;20190;-67
2022/01/01 09:51:19;;;;;;;16.45;6.93;;;;;;;;;;5018372;28;20551;-69
2022/01/01 09:53:44;;;;;;;17.60;7.20;;;;;;;;;;5015238;28;20229;-67
2022/01/01 09:56:09;;;;;;;16.30;5.65;;;;;;;;;;5021309;28;20307;-67
2022/01/01 09:58:37;;;;;;;26.08;7.13;;;;;;;;;;5015879;28;20640;-68
2022/01/01 10:01:03;;;;;;;15.43;6.20;;;;;;;;;;5019785;28;20187;-68
2022/01/01 10:03:42;;;;;;;16.30;6.20;;;;;;;;;;5015235;28;20193;-68
2022/01/01 10:06:12;;;;;;;18.25;6.82;;;;;;;;;;5024220;28;20379;-68
2022/01/01 10:08:38;;;;;;;13.15;6.07;;;;;;;;;;5015085;28;20182;-68
2022/01/01 10:11:05;;;;;;;13.80;6.63;;;;;;;;;;5000220;28;20190;-68
2022/01/01 10:13:33;;;;;;;15.15;6.97;;;;;;;;;;5015463;28;20197;-68
2022/01/01 10:16:02;;;;;;;18.40;6.90;;;;;;;;;;5024211;28;20200;-68
2022/01/01 10:18:29;;;;;;;12.30;6.45;;;;;;;;;;5015716;28;20190;-69
2022/01/01 10:21:00;;;;;;;18.90;7.50;;;;;;;;;;5021294;28;20752;-67
2022/01/01 10:23:29;;;;;;;16.02;7.10;;;;;;;;;;5020662;28;20244;-67
2022/01/01 10:29:14;;;;;;;16.60;7.07;;;;;;;;;;5012024;28;20203;-69
2022/01/01 10:32:13;;;;;;;14.90;7.20;;;;;;;;;;5018832;28;20245;-67
2022/01/01 10:34:44;;;;;;;13.88;7.22;;;;;;;;;;5013936;28;20272;-67
2022/01/01 10:37:12;;;;;;;17.65;6.72;;;;;;;;;;5017942;28;20185;-67
2022/01/01 10:39:48;;;;;;;20.35;6.97;;;;;;;;;;5015811;28;20200;-68
2022/01/01 10:42:14;;;;;;;13.20;6.68;;;;;;;;;;5018386;28;20186;-68
2022/01/01 10:44:39;;;;;;;14.13;6.30;;;;;;;;;;5021191;28;20179;-67
2022/01/01 10:47:19;;;;;;;16.83;6.43;;;;;;;;;;5008333;28;20182;-68
2022/01/01 10:52:32;;;;;;;17.88;6.90;;;;;;;;;;5009359;28;20224;-68
2022/01/01 10:55:01;;;;;;;18.27;6.68;;;;;;;;;;5022172;28;20218;-68
2022/01/01 10:57:28;;;;;;;19.45;7.55;;;;;;;;;;5016177;28;20255;-69
2022/01/01 11:00:13;;;;;;;19.00;6.60;;;;;;;;;;5025892;28;20636;-68
2022/01/01 11:02:49;;;;;;;14.30;6.43;;;;;;;;;;5014510;28;20194;-68
2022/01/01 11:05:15;;;;;;;14.73;5.55;;;;;;;;;;5021354;28;20217;-68
2022/01/01 11:07:51;;;;;;;15.25;5.63;;;;;;;;;;5016491;28;20190;-67
2022/01/01 11:10:18;;;;;;;15.35;5.65;;;;;;;;;;5023930;28;20213;-68
2022/01/01 11:12:45;;;;;;;16.20;6.97;;;;;;;;;;5016035;28;20193;-68
2022/01/01 11:15:10;;;;;;;14.82;5.60;;;;;;;;;;5022205;28;20213;-67
2022/01/01 11:17:36;;;;;;;12.13;5.78;;;;;;;;;;5018958;28;20190;-68
2022/01/01 11:20:03;;;;;;;17.08;5.55;;;;;;;;;;5022635;28;20206;-68
2022/01/01 11:22:28;;;;;;;12.85;5.70;;;;;;;;;;5020378;28;20196;-69
2022/01/01 11:24:54;;;;;;;18.05;6.68;;;;;;;;;;5020072;28;20178;-69
2022/01/01 11:27:20;;;;;;;16.63;9.15;;;;;;;;;;5017166;28;20186;-68
2022/01/01 11:29:50;;;;;;;12.88;5.65;;;;;;;;;;5025733;28;20190;-69
2022/01/01 11:32:19;;;;;;;10.75;5.63;;;;;;;;;;5016969;28;20214;-68
2022/01/01 11:34:50;;;;;;;11.82;5.63;;;;;;;;;;5018791;28;20547;-68
2022/01/01 11:37:16;;;;;;;15.65;6.53;;;;;;;;;;5024523;28;20193;-68
2022/01/01 11:39:43;;;;;;;10.40;5.10;;;;;;;;;;5016942;28;20186;-68
2022/01/01 11:42:14;;;;;;;15.15;5.50;;;;;;;;;;5025634;28;20190;-68
2022/01/01 11:44:52;;;;;;;9.70;5.47;;;;;;;;;;5001206;28;20186;-68
2022/01/01 11:47:20;;;;;;;13.30;4.82;;;;;;;;;;5027640;28;20602;-69
2022/01/01 11:49:46;;;;;;;10.77;4.50;;;;;;;;;;5013200;28;20186;-68
2022/01/01 11:52:12;;;;;;;14.30;5.40;;;;;;;;;;5020714;28;20191;-67
2022/01/01 11:54:40;;;;;;;10.88;5.20;;;;;;;;;;5015516;28;20208;-68
2022/01/01 11:57:20;;;;;;;14.10;5.68;;;;;;;;;;5027607;28;20677;-67
2022/01/01 11:59:50;;;;;;;16.75;5.00;;;;;;;;;;5014580;28;20194;-67
2022/01/01 12:02:18;;;;;;;15.57;5.07;;;;;;;;;;5026923;28;22109;-68
2022/01/01 12:04:51;;;;;;;11.77;4.60;;;;;;;;;;5013367;28;20415;-68
2022/01/01 12:07:19;;;;;;;13.57;5.40;;;;;;;;;;5013632;28;20842;-69
2022/01/01 12:12:48;;;;;;;11.32;4.50;;;;;;;;;;5012721;28;20190;-67
2022/01/01 12:15:21;;;;;;;13.80;4.72;;;;;;;;;;5012411;28;20296;-68
2022/01/01 12:18:06;;;;;;;13.18;5.50;;;;;;;;;;5022846;28;20186;-68
2022/01/01 12:20:45;;;;;;;11.35;4.90;;;;;;;;;;5014103;28;20657;-68
2022/01/01 12:23:19;;;;;;;12.68;4.60;;;;;;;;;;5019796;28;20196;-69
2022/01/01 12:25:46;;;;;;;12.52;4.97;;;;;;;;;;5015775;28;20185;-67
2022/01/01 12:28:17;;;;;;;11.05;5.35;;;;;;;;;;5017343;28;20425;-67
2022/01/01 12:30:54;;;;;;;11.23;4.85;;;;;;;;;;5015607;28;20709;-68
2022/01/01 12:33:37;;;;;;;12.50;5.60;;;;;;;;;;5017182;28;20244;-68
2022/01/01 12:36:09;;;;;;;16.13;5.05;;;;;;;;;;5008311;28;20280;-67
2022/01/01 12:38:39;;;;;;;12.05;5.50;;;;;;;;;;5019046;28;20197;-68
2022/01/01 12:41:06;;;;;;;10.68;4.50;;;;;;;;;;5016651;28;20557;-67
2022/01/01 12:43:40;;;;;;;9.75;4.53;;;;;;;;;;5019943;28;20667;-67
2022/01/01 12:46:06;;;;;;;12.10;4.43;;;;;;;;;;5017915;28;20205;-66
2022/01/01 12:48:36;;;;;;;14.75;5.22;;;;;;;;;;5019534;28;20190;-68
2022/01/01 12:51:04;;;;;;;13.75;5.25;;;;;;;;;;5023789;28;20186;-68
2022/01/01 12:53:31;;;;;;;9.25;4.80;;;;;;;;;;5017140;28;20198;-69
2022/01/01 12:56:12;;;;;;;14.35;5.43;;;;;;;;;;5020058;28;20275;-69
2022/01/01 12:58:49;;;;;;;12.82;5.40;;;;;;;;;;5015898;28;20645;-68
2022/01/01 13:01:21;;;;;;;11.10;5.53;;;;;;;;;;5022077;28;20662;-68
2022/01/01 13:03:52;;;;;;;11.52;5.20;;;;;;;;;;5012451;28;20273;-69
2022/01/01 13:06:42;;;;;;;11.75;5.38;;;;;;;;;;5024132;28;20758;-68
2022/01/01 13:09:15;;;;;;;14.60;6.07;;;;;;;;;;5015803;28;20602;-68
2022/01/01 13:11:46;;;;;;;10.60;5.65;;;;;;;;;;5017180;28;20277;-69
2022/01/01 13:14:12;;;;;;;11.70;5.47;;;;;;;;;;5013591;28;20212;-68
2022/01/01 13:16:38;;;;;;;11.70;6.07;;;;;;;;;;5018062;28;20271;-67
2022/01/01 13:19:05;;;;;;;17.27;6.53;;;;;;;;;;5019550;28;20186;-69
2022/01/01 13:21:32;;;;;;;11.80;5.45;;;;;;;;;;5019367;28;20285;-68
2022/01/01 13:23:57;;;;;;;10.50;5.70;;;;;;;;;;5017019;28;20619;-68
2022/01/01 13:26:22;;;;;;;12.55;5.40;;;;;;;;;;5021765;28;20281;-68
2022/01/01 13:28:48;;;;;;;12.15;5.68;;;;;;;;;;5013989;28;20217;-68
2022/01/01 13:31:14;;;;;;;12.68;5.43;;;;;;;;;;4998860;28;20308;-68
2022/01/01 13:33:46;;;;;;;11.98;6.07;;;;;;;;;;5004138;28;20695;-68
2022/01/01 13:36:28;;;;;;;11.00;6.57;;;;;;;;;;5015972;28;20209;-68
2022/01/01 13:38:54;;;;;;;12.85;6.15;;;;;;;;;;5005818;28;20260;-68
2022/01/01 13:41:19;;;;;;;14.05;7.40;;;;;;;;;;5014881;28;20217;-69
2022/01/01 13:43:44;;;;;;;14.02;6.90;;;;;;;;;;5019972;28;20420;-68
2022/01/01 13:46:11;;;;;;;15.38;8.13;;;;;;;;;;5005619;28;20252;-68
2022/01/01 13:48:50;;;;;;;16.25;7.15;;;;;;;;;;5018768;28;20193;-68
2022/01/01 13:51:19;;;;;;;15.80;8.90;;;;;;;;;;5009549;28;20208;-68
2022/01/01 13:53:45;;;;;;;18.10;10.35;;;;;;;;;;5021075;28;20642;-69
2022/01/01 13:56:14;;;;;;;27.10;18.70;;;;;;;;;;5007874;28;20192;-68
2022/01/01 13:58:59;;;;;;;11.95;5.78;;;;;;;;;;5017545;28;20552;-69
2022/01/01 14:01:26;;;;;;;14.88;5.78;;;;;;;;;;5005336;28;20205;-69
2022/01/01 14:03:53;;;;;;;9.65;5.80;;;;;;;;;;5014739;28;20193;-68
2022/01/01 14:06:27;;;;;;;11.05;5.43;;;;;;;;;;5007550;28;20206;-69
2022/01/01 14:09:00;;;;;;;12.00;5.97;;;;;;;;;;5019753;28;20654;-68
2022/01/01 14:11:27;;;;;;;13.52;7.13;;;;;;;;;;5009872;28;20201;-68
2022/01/01 14:14:09;;;;;;;12.32;6.07;;;;;;;;;;5020918;28;20319;-67
2022/01/01 14:16:50;;;;;;;13.38;5.88;;;;;;;;;;5009602;28;20190;-68
2022/01/01 14:19:17;;;;;;;11.27;5.57;;;;;;;;;;5019097;28;20186;-68
2022/01/01 14:21:44;;;;;;;11.25;6.90;;;;;;;;;;5014021;28;20250;-68
2022/01/01 14:24:15;;;;;;;16.80;9.98;;;;;;;;;;5018393;28;20671;-68
2022/01/01 14:26:46;;;;;;;12.52;7.40;;;;;;;;;;5015050;28;20543;-69
2022/01/01 14:29:13;;;;;;;16.23;9.93;;;;;;;;;;5019016;28;20213;-68
2022/01/01 14:31:43;;;;;;;16.63;8.32;;;;;;;;;;5016203;28;20741;-67
2022/01/01 14:34:13;;;;;;;12.77;6.15;;;;;;;;;;5018690;28;20243;-68